sensor_id;sensor_type;location;lat;lon;timestamp;temperature;humidity
24618;DHT22;12762;51.730;5.356;2023-05-08T00:01:29;16.40;84.80
24618;DHT22;12762;51.730;5.356;2023-05-08T00:03:56;16.40;84.90
24618;DHT22;12762;51.730;5.356;2023-05-08T00:06:24;16.30;84.70
24618;DHT22;12762;51.730;5.356;2023-05-08T00:08:51;16.30;84.80
24618;DHT22;12762;51.730;5.356;2023-05-08T00:11:17;16.30;84.80
24618;DHT22;12762;51.730;5.356;2023-05-08T00:13:44;16.30;84.90
24618;DHT22;12762;51.730;5.356;2023-05-08T00:16:11;16.20;84.90
24618;DHT22;12762;51.730;5.356;2023-05-08T00:18:39;16.20;85.10
24618;DHT22;12762;51.730;5.356;2023-05-08T00:21:05;16.20;85.20
24618;DHT22;12762;51.730;5.356;2023-05-08T00:23:33;16.20;85.30
24618;DHT22;12762;51.730;5.356;2023-05-08T00:26:00;16.20;85.40
24618;DHT22;12762;51.730;5.356;2023-05-08T00:28:27;16.10;85.20
24618;DHT22;12762;51.730;5.356;2023-05-08T00:30:59;16.10;85.30
24618;DHT22;12762;51.730;5.356;2023-05-08T00:33:27;16.10;86.30
24618;DHT22;12762;51.730;5.356;2023-05-08T00:36:04;16.10;85.40
24618;DHT22;12762;51.730;5.356;2023-05-08T00:38:32;16.10;85.60
24618;DHT22;12762;51.730;5.356;2023-05-08T00:41:00;16.10;85.70
24618;DHT22;12762;51.730;5.356;2023-05-08T00:43:27;16.10;85.80
24618;DHT22;12762;51.730;5.356;2023-05-08T00:45:59;16.00;85.70
24618;DHT22;12762;51.730;5.356;2023-05-08T00:48:29;16.00;85.80
24618;DHT22;12762;51.730;5.356;2023-05-08T00:51:01;16.00;85.80
24618;DHT22;12762;51.730;5.356;2023-05-08T00:53:32;16.00;85.80
24618;DHT22;12762;51.730;5.356;2023-05-08T00:55:59;15.90;85.80
24618;DHT22;12762;51.730;5.356;2023-05-08T00:58:30;15.90;85.90
24618;DHT22;12762;51.730;5.356;2023-05-08T01:00:58;15.90;85.90
24618;DHT22;12762;51.730;5.356;2023-05-08T01:03:27;15.90;85.90
24618;DHT22;12762;51.730;5.356;2023-05-08T01:05:54;15.80;85.90
24618;DHT22;12762;51.730;5.356;2023-05-08T01:08:26;15.80;85.90
24618;DHT22;12762;51.730;5.356;2023-05-08T01:13:35;15.70;86.00
24618;DHT22;12762;51.730;5.356;2023-05-08T01:16:14;15.70;86.10
24618;DHT22;12762;51.730;5.356;2023-05-08T01:18:46;15.60;86.10
24618;DHT22;12762;51.730;5.356;2023-05-08T01:21:32;15.60;86.10
24618;DHT22;12762;51.730;5.356;2023-05-08T01:24:21;15.60;86.10
24618;DHT22;12762;51.730;5.356;2023-05-08T01:27:39;15.50;86.10
24618;DHT22;12762;51.730;5.356;2023-05-08T01:33:23;15.50;86.00
24618;DHT22;12762;51.730;5.356;2023-05-08T01:41:40;15.40;86.10
24618;DHT22;12762;51.730;5.356;2023-05-08T01:44:23;15.40;86.30
24618;DHT22;12762;51.730;5.356;2023-05-08T01:46:50;15.40;86.20
24618;DHT22;12762;51.730;5.356;2023-05-08T01:49:32;15.40;86.40
24618;DHT22;12762;51.730;5.356;2023-05-08T01:52:04;15.40;86.40
24618;DHT22;12762;51.730;5.356;2023-05-08T01:54:38;15.40;86.50
24618;DHT22;12762;51.730;5.356;2023-05-08T01:57:08;15.40;86.60
24618;DHT22;12762;51.730;5.356;2023-05-08T01:59:40;15.40;86.70
24618;DHT22;12762;51.730;5.356;2023-05-08T02:02:09;15.40;86.80
24618;DHT22;12762;51.730;5.356;2023-05-08T02:04:38;15.40;86.90
24618;DHT22;12762;51.730;5.356;2023-05-08T02:07:05;15.40;87.00
24618;DHT22;12762;51.730;5.356;2023-05-08T02:09:34;15.40;87.00
24618;DHT22;12762;51.730;5.356;2023-05-08T02:12:01;15.40;87.00
24618;DHT22;12762;51.730;5.356;2023-05-08T02:14:31;15.40;87.00
24618;DHT22;12762;51.730;5.356;2023-05-08T02:16:58;15.40;87.00
24618;DHT22;12762;51.730;5.356;2023-05-08T02:19:28;15.40;87.20
24618;DHT22;12762;51.730;5.356;2023-05-08T02:21:57;15.40;87.30
24618;DHT22;12762;51.730;5.356;2023-05-08T02:24:24;15.40;87.30
24618;DHT22;12762;51.730;5.356;2023-05-08T02:26:55;15.40;87.50
24618;DHT22;12762;51.730;5.356;2023-05-08T02:29:23;15.40;87.50
24618;DHT22;12762;51.730;5.356;2023-05-08T02:31:52;15.40;87.60
24618;DHT22;12762;51.730;5.356;2023-05-08T02:34:20;15.40;87.70
24618;DHT22;12762;51.730;5.356;2023-05-08T02:36:50;15.40;87.80
24618;DHT22;12762;51.730;5.356;2023-05-08T02:39:19;15.40;87.90
24618;DHT22;12762;51.730;5.356;2023-05-08T02:41:47;15.40;87.90
24618;DHT22;12762;51.730;5.356;2023-05-08T02:44:14;15.40;87.90
24618;DHT22;12762;51.730;5.356;2023-05-08T02:46:55;15.40;88.00
24618;DHT22;12762;51.730;5.356;2023-05-08T02:49:31;15.40;87.90
24618;DHT22;12762;51.730;5.356;2023-05-08T02:52:12;15.40;88.00
24618;DHT22;12762;51.730;5.356;2023-05-08T02:54:50;15.30;88.00
24618;DHT22;12762;51.730;5.356;2023-05-08T02:57:30;15.30;88.10
24618;DHT22;12762;51.730;5.356;2023-05-08T03:00:07;15.30;88.20
24618;DHT22;12762;51.730;5.356;2023-05-08T03:02:40;15.30;88.20
24618;DHT22;12762;51.730;5.356;2023-05-08T03:05:17;15.30;88.30
24618;DHT22;12762;51.730;5.356;2023-05-08T03:07:47;15.30;88.40
24618;DHT22;12762;51.730;5.356;2023-05-08T03:10:17;15.30;88.40
24618;DHT22;12762;51.730;5.356;2023-05-08T03:12:47;15.30;88.50
24618;DHT22;12762;51.730;5.356;2023-05-08T03:17:56;15.30;88.50
24618;DHT22;12762;51.730;5.356;2023-05-08T03:20:25;15.30;88.60
24618;DHT22;12762;51.730;5.356;2023-05-08T03:22:55;15.30;88.70
24618;DHT22;12762;51.730;5.356;2023-05-08T03:25:23;15.30;88.80
24618;DHT22;12762;51.730;5.356;2023-05-08T03:27:50;15.30;88.80
24618;DHT22;12762;51.730;5.356;2023-05-08T03:30:19;15.30;89.00
24618;DHT22;12762;51.730;5.356;2023-05-08T03:32:47;15.30;89.00
24618;DHT22;12762;51.730;5.356;2023-05-08T03:35:18;15.30;89.10
24618;DHT22;12762;51.730;5.356;2023-05-08T03:37:45;15.30;89.10
24618;DHT22;12762;51.730;5.356;2023-05-08T03:40:12;15.30;89.20
24618;DHT22;12762;51.730;5.356;2023-05-08T03:42:40;15.20;89.20
24618;DHT22;12762;51.730;5.356;2023-05-08T03:45:08;15.20;89.20
24618;DHT22;12762;51.730;5.356;2023-05-08T03:47:36;15.20;89.30
24618;DHT22;12762;51.730;5.356;2023-05-08T03:50:04;15.20;89.40
24618;DHT22;12762;51.730;5.356;2023-05-08T03:52:31;15.20;89.50
24618;DHT22;12762;51.730;5.356;2023-05-08T03:54:58;15.10;89.50
24618;DHT22;12762;51.730;5.356;2023-05-08T03:57:26;15.10;89.50
24618;DHT22;12762;51.730;5.356;2023-05-08T04:00:00;15.10;89.60
24618;DHT22;12762;51.730;5.356;2023-05-08T04:02:40;15.00;89.60
24618;DHT22;12762;51.730;5.356;2023-05-08T04:05:23;15.00;89.60
24618;DHT22;12762;51.730;5.356;2023-05-08T04:08:33;15.00;89.70
24618;DHT22;12762;51.730;5.356;2023-05-08T04:11:14;14.90;89.00
24618;DHT22;12762;51.730;5.356;2023-05-08T04:13:48;14.90;89.60
24618;DHT22;12762;51.730;5.356;2023-05-08T04:16:22;14.80;89.70
24618;DHT22;12762;51.730;5.356;2023-05-08T04:18:57;14.80;89.80
24618;DHT22;12762;51.730;5.356;2023-05-08T04:21:26;14.70;89.80
24618;DHT22;12762;51.730;5.356;2023-05-08T04:23:56;14.70;89.90
24618;DHT22;12762;51.730;5.356;2023-05-08T04:26:24;14.70;90.00
24618;DHT22;12762;51.730;5.356;2023-05-08T04:28:51;14.70;90.00
24618;DHT22;12762;51.730;5.356;2023-05-08T04:31:18;14.60;90.00
24618;DHT22;12762;51.730;5.356;2023-05-08T04:33:46;14.60;90.00
24618;DHT22;12762;51.730;5.356;2023-05-08T04:36:13;14.60;90.10
24618;DHT22;12762;51.730;5.356;2023-05-08T04:38:40;14.70;90.10
24618;DHT22;12762;51.730;5.356;2023-05-08T04:41:07;14.60;90.10
24618;DHT22;12762;51.730;5.356;2023-05-08T04:43:35;14.70;90.20
24618;DHT22;12762;51.730;5.356;2023-05-08T04:46:03;14.70;90.20
24618;DHT22;12762;51.730;5.356;2023-05-08T04:48:31;14.70;90.20
24618;DHT22;12762;51.730;5.356;2023-05-08T04:50:59;14.80;90.30
24618;DHT22;12762;51.730;5.356;2023-05-08T04:53:26;14.80;90.30
24618;DHT22;12762;51.730;5.356;2023-05-08T04:55:55;14.80;90.30
24618;DHT22;12762;51.730;5.356;2023-05-08T04:58:24;14.90;90.30
24618;DHT22;12762;51.730;5.356;2023-05-08T05:00:50;14.90;90.40
24618;DHT22;12762;51.730;5.356;2023-05-08T05:03:17;15.00;90.40
24618;DHT22;12762;51.730;5.356;2023-05-08T05:05:44;15.00;90.40
24618;DHT22;12762;51.730;5.356;2023-05-08T05:08:11;15.10;90.50
24618;DHT22;12762;51.730;5.356;2023-05-08T05:10:38;15.10;90.40
24618;DHT22;12762;51.730;5.356;2023-05-08T05:13:05;15.20;90.50
24618;DHT22;12762;51.730;5.356;2023-05-08T05:15:32;15.20;90.50
24618;DHT22;12762;51.730;5.356;2023-05-08T05:17:59;15.30;90.60
24618;DHT22;12762;51.730;5.356;2023-05-08T05:20:26;15.40;90.60
24618;DHT22;12762;51.730;5.356;2023-05-08T05:22:53;15.40;90.60
24618;DHT22;12762;51.730;5.356;2023-05-08T05:25:19;15.50;90.70
24618;DHT22;12762;51.730;5.356;2023-05-08T05:27:46;15.60;90.80
24618;DHT22;12762;51.730;5.356;2023-05-08T05:30:13;15.70;90.80
24618;DHT22;12762;51.730;5.356;2023-05-08T05:32:40;15.70;90.80
24618;DHT22;12762;51.730;5.356;2023-05-08T05:35:08;15.80;90.90
24618;DHT22;12762;51.730;5.356;2023-05-08T05:37:35;15.90;90.90
24618;DHT22;12762;51.730;5.356;2023-05-08T05:40:03;16.00;90.90
24618;DHT22;12762;51.730;5.356;2023-05-08T05:42:30;16.10;91.00
24618;DHT22;12762;51.730;5.356;2023-05-08T05:44:57;16.10;90.90
24618;DHT22;12762;51.730;5.356;2023-05-08T05:47:24;16.20;90.90
24618;DHT22;12762;51.730;5.356;2023-05-08T05:49:51;16.20;90.90
24618;DHT22;12762;51.730;5.356;2023-05-08T05:52:18;16.20;90.90
24618;DHT22;12762;51.730;5.356;2023-05-08T05:54:45;16.20;90.90
24618;DHT22;12762;51.730;5.356;2023-05-08T05:57:12;16.30;90.90
24618;DHT22;12762;51.730;5.356;2023-05-08T05:59:39;16.30;90.90
24618;DHT22;12762;51.730;5.356;2023-05-08T06:02:06;16.30;90.90
24618;DHT22;12762;51.730;5.356;2023-05-08T06:04:36;16.30;90.90
24618;DHT22;12762;51.730;5.356;2023-05-08T06:07:05;16.40;91.00
24618;DHT22;12762;51.730;5.356;2023-05-08T06:09:32;16.40;91.00
24618;DHT22;12762;51.730;5.356;2023-05-08T06:11:58;16.40;91.00
24618;DHT22;12762;51.730;5.356;2023-05-08T06:14:25;16.40;91.00
24618;DHT22;12762;51.730;5.356;2023-05-08T06:16:55;16.50;91.00
24618;DHT22;12762;51.730;5.356;2023-05-08T06:19:24;16.50;91.00
24618;DHT22;12762;51.730;5.356;2023-05-08T06:21:51;16.50;91.00
24618;DHT22;12762;51.730;5.356;2023-05-08T06:24:18;16.50;91.00
24618;DHT22;12762;51.730;5.356;2023-05-08T06:26:45;16.60;91.10
24618;DHT22;12762;51.730;5.356;2023-05-08T06:29:15;16.60;91.10
24618;DHT22;12762;51.730;5.356;2023-05-08T06:31:42;16.60;91.10
24618;DHT22;12762;51.730;5.356;2023-05-08T06:34:09;16.70;91.10
24618;DHT22;12762;51.730;5.356;2023-05-08T06:36:36;16.70;91.10
24618;DHT22;12762;51.730;5.356;2023-05-08T06:39:04;16.70;91.10
24618;DHT22;12762;51.730;5.356;2023-05-08T06:41:31;16.70;91.10
24618;DHT22;12762;51.730;5.356;2023-05-08T06:43:58;16.70;91.10
24618;DHT22;12762;51.730;5.356;2023-05-08T06:46:25;16.80;91.10
24618;DHT22;12762;51.730;5.356;2023-05-08T06:48:52;16.80;91.10
24618;DHT22;12762;51.730;5.356;2023-05-08T06:51:20;16.80;91.10
24618;DHT22;12762;51.730;5.356;2023-05-08T06:53:48;16.80;91.00
24618;DHT22;12762;51.730;5.356;2023-05-08T06:56:15;16.80;91.10
24618;DHT22;12762;51.730;5.356;2023-05-08T06:58:46;16.80;91.10
24618;DHT22;12762;51.730;5.356;2023-05-08T07:01:33;16.90;91.20
24618;DHT22;12762;51.730;5.356;2023-05-08T07:04:02;16.90;91.20
24618;DHT22;12762;51.730;5.356;2023-05-08T07:06:29;17.00;91.20
24618;DHT22;12762;51.730;5.356;2023-05-08T07:08:59;17.00;91.20
24618;DHT22;12762;51.730;5.356;2023-05-08T07:11:26;17.00;91.20
24618;DHT22;12762;51.730;5.356;2023-05-08T07:13:53;17.00;91.10
24618;DHT22;12762;51.730;5.356;2023-05-08T07:16:20;17.10;91.20
24618;DHT22;12762;51.730;5.356;2023-05-08T07:18:47;17.10;91.20
24618;DHT22;12762;51.730;5.356;2023-05-08T07:21:13;17.10;91.10
24618;DHT22;12762;51.730;5.356;2023-05-08T07:23:41;17.20;91.20
24618;DHT22;12762;51.730;5.356;2023-05-08T07:26:08;17.20;91.10
24618;DHT22;12762;51.730;5.356;2023-05-08T07:28:34;17.30;91.10
24618;DHT22;12762;51.730;5.356;2023-05-08T07:31:04;17.30;91.10
24618;DHT22;12762;51.730;5.356;2023-05-08T07:33:32;17.40;91.10
24618;DHT22;12762;51.730;5.356;2023-05-08T07:36:00;17.40;91.10
24618;DHT22;12762;51.730;5.356;2023-05-08T07:38:27;17.50;91.40
24618;DHT22;12762;51.730;5.356;2023-05-08T07:40:54;17.60;91.00
24618;DHT22;12762;51.730;5.356;2023-05-08T07:43:23;17.60;90.90
24618;DHT22;12762;51.730;5.356;2023-05-08T07:45:50;17.60;90.90
24618;DHT22;12762;51.730;5.356;2023-05-08T07:48:19;17.70;90.90
24618;DHT22;12762;51.730;5.356;2023-05-08T07:50:48;17.70;90.90
24618;DHT22;12762;51.730;5.356;2023-05-08T07:53:16;17.80;90.90
24618;DHT22;12762;51.730;5.356;2023-05-08T07:55:43;17.90;90.90
24618;DHT22;12762;51.730;5.356;2023-05-08T07:58:09;18.00;90.80
24618;DHT22;12762;51.730;5.356;2023-05-08T08:00:36;18.10;90.80
24618;DHT22;12762;51.730;5.356;2023-05-08T08:03:03;18.30;90.90
24618;DHT22;12762;51.730;5.356;2023-05-08T08:05:30;18.50;90.80
24618;DHT22;12762;51.730;5.356;2023-05-08T08:07:57;18.70;90.50
24618;DHT22;12762;51.730;5.356;2023-05-08T08:10:24;18.80;90.30
24618;DHT22;12762;51.730;5.356;2023-05-08T08:12:51;19.00;90.30
24618;DHT22;12762;51.730;5.356;2023-05-08T08:15:18;19.10;90.30
24618;DHT22;12762;51.730;5.356;2023-05-08T08:17:45;19.30;90.20
24618;DHT22;12762;51.730;5.356;2023-05-08T08:20:12;19.40;90.00
24618;DHT22;12762;51.730;5.356;2023-05-08T08:22:39;19.50;89.80
24618;DHT22;12762;51.730;5.356;2023-05-08T08:25:06;19.60;89.30
24618;DHT22;12762;51.730;5.356;2023-05-08T08:27:33;19.60;89.00
24618;DHT22;12762;51.730;5.356;2023-05-08T08:30:00;19.60;88.70
24618;DHT22;12762;51.730;5.356;2023-05-08T08:32:42;19.60;88.50
24618;DHT22;12762;51.730;5.356;2023-05-08T08:35:10;19.60;88.30
24618;DHT22;12762;51.730;5.356;2023-05-08T08:37:44;19.60;88.20
24618;DHT22;12762;51.730;5.356;2023-05-08T08:40:11;19.60;88.20
24618;DHT22;12762;51.730;5.356;2023-05-08T08:42:38;19.70;88.40
24618;DHT22;12762;51.730;5.356;2023-05-08T08:45:06;20.00;90.00
24618;DHT22;12762;51.730;5.356;2023-05-08T08:47:35;20.30;88.50
24618;DHT22;12762;51.730;5.356;2023-05-08T08:50:07;20.60;87.50
24618;DHT22;12762;51.730;5.356;2023-05-08T08:53:00;20.80;86.90
24618;DHT22;12762;51.730;5.356;2023-05-08T08:55:29;20.90;86.70
24618;DHT22;12762;51.730;5.356;2023-05-08T09:00:45;21.00;85.20
24618;DHT22;12762;51.730;5.356;2023-05-08T09:03:17;21.20;85.80
24618;DHT22;12762;51.730;5.356;2023-05-08T09:05:44;21.60;85.30
24618;DHT22;12762;51.730;5.356;2023-05-08T09:08:11;21.70;84.10
24618;DHT22;12762;51.730;5.356;2023-05-08T09:10:38;21.70;83.50
24618;DHT22;12762;51.730;5.356;2023-05-08T09:13:05;21.80;83.40
24618;DHT22;12762;51.730;5.356;2023-05-08T09:15:32;21.80;83.40
24618;DHT22;12762;51.730;5.356;2023-05-08T09:18:02;21.80;83.10
24618;DHT22;12762;51.730;5.356;2023-05-08T09:20:32;21.90;83.10
24618;DHT22;12762;51.730;5.356;2023-05-08T09:23:00;21.90;82.50
24618;DHT22;12762;51.730;5.356;2023-05-08T09:25:45;22.00;81.90
24618;DHT22;12762;51.730;5.356;2023-05-08T09:28:25;22.00;81.90
24618;DHT22;12762;51.730;5.356;2023-05-08T09:30:54;21.90;81.40
24618;DHT22;12762;51.730;5.356;2023-05-08T09:33:26;21.90;81.40
24618;DHT22;12762;51.730;5.356;2023-05-08T09:35:56;21.90;81.50
24618;DHT22;12762;51.730;5.356;2023-05-08T09:38:38;21.90;81.30
24618;DHT22;12762;51.730;5.356;2023-05-08T09:41:11;22.00;81.50
24618;DHT22;12762;51.730;5.356;2023-05-08T09:43:41;22.10;80.90
24618;DHT22;12762;51.730;5.356;2023-05-08T09:46:25;22.10;80.60
24618;DHT22;12762;51.730;5.356;2023-05-08T09:48:54;22.00;80.40
24618;DHT22;12762;51.730;5.356;2023-05-08T09:51:22;21.90;80.30
24618;DHT22;12762;51.730;5.356;2023-05-08T09:53:53;21.80;80.40
24618;DHT22;12762;51.730;5.356;2023-05-08T09:56:33;21.80;80.80
24618;DHT22;12762;51.730;5.356;2023-05-08T09:59:24;21.70;80.60
24618;DHT22;12762;51.730;5.356;2023-05-08T10:01:54;21.60;80.90
24618;DHT22;12762;51.730;5.356;2023-05-08T10:04:34;21.60;80.90
24618;DHT22;12762;51.730;5.356;2023-05-08T10:07:03;21.60;80.90
24618;DHT22;12762;51.730;5.356;2023-05-08T10:09:30;21.60;81.30
24618;DHT22;12762;51.730;5.356;2023-05-08T10:12:15;21.60;81.00
24618;DHT22;12762;51.730;5.356;2023-05-08T10:14:45;21.60;80.60
24618;DHT22;12762;51.730;5.356;2023-05-08T10:17:21;21.50;80.50
24618;DHT22;12762;51.730;5.356;2023-05-08T10:19:59;21.50;80.60
24618;DHT22;12762;51.730;5.356;2023-05-08T10:22:30;21.50;81.40
24618;DHT22;12762;51.730;5.356;2023-05-08T10:24:59;21.50;80.50
24618;DHT22;12762;51.730;5.356;2023-05-08T10:27:51;21.40;80.10
24618;DHT22;12762;51.730;5.356;2023-05-08T10:30:23;21.40;80.20
24618;DHT22;12762;51.730;5.356;2023-05-08T10:32:52;21.40;80.20
24618;DHT22;12762;51.730;5.356;2023-05-08T10:35:24;21.40;80.40
24618;DHT22;12762;51.730;5.356;2023-05-08T10:37:51;21.50;80.30
24618;DHT22;12762;51.730;5.356;2023-05-08T10:40:19;21.50;80.00
24618;DHT22;12762;51.730;5.356;2023-05-08T10:42:48;21.40;79.80
24618;DHT22;12762;51.730;5.356;2023-05-08T10:45:16;21.40;79.80
24618;DHT22;12762;51.730;5.356;2023-05-08T10:48:14;21.50;79.60
24618;DHT22;12762;51.730;5.356;2023-05-08T10:51:07;21.50;79.60
24618;DHT22;12762;51.730;5.356;2023-05-08T10:53:54;21.40;79.40
24618;DHT22;12762;51.730;5.356;2023-05-08T10:56:26;21.50;79.80
24618;DHT22;12762;51.730;5.356;2023-05-08T10:58:57;21.60;79.50
24618;DHT22;12762;51.730;5.356;2023-05-08T11:01:26;21.70;79.20
24618;DHT22;12762;51.730;5.356;2023-05-08T11:03:54;21.80;79.10
24618;DHT22;12762;51.730;5.356;2023-05-08T11:06:44;21.90;78.60
24618;DHT22;12762;51.730;5.356;2023-05-08T11:09:19;21.90;78.60
24618;DHT22;12762;51.730;5.356;2023-05-08T11:12:37;21.90;78.20
24618;DHT22;12762;51.730;5.356;2023-05-08T11:15:00;21.80;78.10
24618;DHT22;12762;51.730;5.356;2023-05-08T11:17:27;21.80;78.40
24618;DHT22;12762;51.730;5.356;2023-05-08T11:19:59;21.80;78.20
24618;DHT22;12762;51.730;5.356;2023-05-08T11:22:35;21.80;78.00
24618;DHT22;12762;51.730;5.356;2023-05-08T11:25:06;21.90;77.70
24618;DHT22;12762;51.730;5.356;2023-05-08T11:27:38;21.90;77.70
24618;DHT22;12762;51.730;5.356;2023-05-08T11:38:16;22.30;77.50
24618;DHT22;12762;51.730;5.356;2023-05-08T11:41:20;22.50;78.20
24618;DHT22;12762;51.730;5.356;2023-05-08T11:44:16;22.60;77.20
24618;DHT22;12762;51.730;5.356;2023-05-08T11:46:53;22.70;76.40
24618;DHT22;12762;51.730;5.356;2023-05-08T11:49:25;22.60;75.70
24618;DHT22;12762;51.730;5.356;2023-05-08T11:51:57;22.60;75.50
24618;DHT22;12762;51.730;5.356;2023-05-08T11:54:25;22.50;75.10
24618;DHT22;12762;51.730;5.356;2023-05-08T11:56:54;22.40;74.90
24618;DHT22;12762;51.730;5.356;2023-05-08T11:59:21;22.50;75.10
24618;DHT22;12762;51.730;5.356;2023-05-08T12:01:57;22.80;75.80
24618;DHT22;12762;51.730;5.356;2023-05-08T12:04:56;23.00;75.10
24618;DHT22;12762;51.730;5.356;2023-05-08T12:07:41;23.40;75.50
24618;DHT22;12762;51.730;5.356;2023-05-08T12:10:18;23.70;74.80
24618;DHT22;12762;51.730;5.356;2023-05-08T12:13:13;23.90;73.40
24618;DHT22;12762;51.730;5.356;2023-05-08T12:15:41;24.10;72.60
24618;DHT22;12762;51.730;5.356;2023-05-08T12:18:19;24.30;72.10
24618;DHT22;12762;51.730;5.356;2023-05-08T12:20:55;24.50;71.90
24618;DHT22;12762;51.730;5.356;2023-05-08T12:23:35;24.70;71.00
24618;DHT22;12762;51.730;5.356;2023-05-08T12:26:03;24.70;71.00
24618;DHT22;12762;51.730;5.356;2023-05-08T12:28:30;24.80;70.00
24618;DHT22;12762;51.730;5.356;2023-05-08T12:31:00;24.80;69.80
24618;DHT22;12762;51.730;5.356;2023-05-08T12:33:32;24.80;69.70
24618;DHT22;12762;51.730;5.356;2023-05-08T12:36:00;24.90;69.60
24618;DHT22;12762;51.730;5.356;2023-05-08T12:38:27;25.00;68.90
24618;DHT22;12762;51.730;5.356;2023-05-08T12:41:55;24.90;69.10
24618;DHT22;12762;51.730;5.356;2023-05-08T12:44:39;24.90;70.00
24618;DHT22;12762;51.730;5.356;2023-05-08T12:47:35;24.90;69.30
24618;DHT22;12762;51.730;5.356;2023-05-08T12:55:26;24.70;69.50
24618;DHT22;12762;51.730;5.356;2023-05-08T13:02:53;24.50;69.70
24618;DHT22;12762;51.730;5.356;2023-05-08T13:05:24;24.50;70.20
24618;DHT22;12762;51.730;5.356;2023-05-08T13:07:51;24.60;69.70
24618;DHT22;12762;51.730;5.356;2023-05-08T13:10:24;24.70;70.30
24618;DHT22;12762;51.730;5.356;2023-05-08T13:12:53;24.80;68.80
24618;DHT22;12762;51.730;5.356;2023-05-08T13:15:20;24.80;68.50
24618;DHT22;12762;51.730;5.356;2023-05-08T13:18:01;24.90;68.40
24618;DHT22;12762;51.730;5.356;2023-05-08T13:20:31;24.90;68.00
24618;DHT22;12762;51.730;5.356;2023-05-08T13:25:35;24.80;68.10
24618;DHT22;12762;51.730;5.356;2023-05-08T13:28:02;24.80;67.70
24618;DHT22;12762;51.730;5.356;2023-05-08T13:30:29;24.80;67.90
24618;DHT22;12762;51.730;5.356;2023-05-08T13:32:57;24.90;68.00
24618;DHT22;12762;51.730;5.356;2023-05-08T13:35:24;24.80;67.50
24618;DHT22;12762;51.730;5.356;2023-05-08T13:37:51;24.70;67.50
24618;DHT22;12762;51.730;5.356;2023-05-08T13:40:18;24.60;67.30
24618;DHT22;12762;51.730;5.356;2023-05-08T13:42:45;24.50;67.70
24618;DHT22;12762;51.730;5.356;2023-05-08T13:45:15;24.60;67.40
24618;DHT22;12762;51.730;5.356;2023-05-08T13:47:46;24.60;67.30
24618;DHT22;12762;51.730;5.356;2023-05-08T13:50:14;24.70;67.60
24618;DHT22;12762;51.730;5.356;2023-05-08T13:52:42;24.80;67.50
24618;DHT22;12762;51.730;5.356;2023-05-08T13:55:10;25.00;67.30
24618;DHT22;12762;51.730;5.356;2023-05-08T13:57:38;25.10;66.80
24618;DHT22;12762;51.730;5.356;2023-05-08T14:00:07;25.10;66.20
24618;DHT22;12762;51.730;5.356;2023-05-08T14:02:35;25.00;65.80
24618;DHT22;12762;51.730;5.356;2023-05-08T14:05:04;25.00;65.80
24618;DHT22;12762;51.730;5.356;2023-05-08T14:07:34;24.90;65.60
24618;DHT22;12762;51.730;5.356;2023-05-08T14:10:01;24.80;66.10
24618;DHT22;12762;51.730;5.356;2023-05-08T14:12:28;24.90;66.10
24618;DHT22;12762;51.730;5.356;2023-05-08T14:14:55;24.80;66.10
24618;DHT22;12762;51.730;5.356;2023-05-08T14:17:22;24.80;66.20
24618;DHT22;12762;51.730;5.356;2023-05-08T14:19:49;24.50;66.00
24618;DHT22;12762;51.730;5.356;2023-05-08T14:22:15;24.40;66.30
24618;DHT22;12762;51.730;5.356;2023-05-08T14:24:42;24.30;66.30
24618;DHT22;12762;51.730;5.356;2023-05-08T14:27:09;24.20;66.80
24618;DHT22;12762;51.730;5.356;2023-05-08T14:29:36;24.20;66.80
24618;DHT22;12762;51.730;5.356;2023-05-08T14:32:04;24.30;66.70
24618;DHT22;12762;51.730;5.356;2023-05-08T14:34:31;24.30;67.10
24618;DHT22;12762;51.730;5.356;2023-05-08T14:37:01;24.30;66.90
24618;DHT22;12762;51.730;5.356;2023-05-08T14:39:28;24.40;66.80
24618;DHT22;12762;51.730;5.356;2023-05-08T14:41:55;24.40;66.70
24618;DHT22;12762;51.730;5.356;2023-05-08T14:44:42;24.50;66.40
24618;DHT22;12762;51.730;5.356;2023-05-08T14:47:09;24.30;66.00
24618;DHT22;12762;51.730;5.356;2023-05-08T14:49:36;24.20;65.90
24618;DHT22;12762;51.730;5.356;2023-05-08T14:52:05;24.10;66.10
24618;DHT22;12762;51.730;5.356;2023-05-08T14:54:32;24.00;66.10
24618;DHT22;12762;51.730;5.356;2023-05-08T14:57:00;23.90;66.40
24618;DHT22;12762;51.730;5.356;2023-05-08T14:59:26;23.90;66.70
24618;DHT22;12762;51.730;5.356;2023-05-08T15:01:53;23.80;66.80
24618;DHT22;12762;51.730;5.356;2023-05-08T15:04:23;23.80;67.00
24618;DHT22;12762;51.730;5.356;2023-05-08T15:06:50;23.70;67.20
24618;DHT22;12762;51.730;5.356;2023-05-08T15:09:17;23.60;67.40
24618;DHT22;12762;51.730;5.356;2023-05-08T15:11:43;23.60;67.40
24618;DHT22;12762;51.730;5.356;2023-05-08T15:14:16;23.50;68.50
24618;DHT22;12762;51.730;5.356;2023-05-08T15:16:43;23.50;67.80
24618;DHT22;12762;51.730;5.356;2023-05-08T15:19:10;23.40;67.90
24618;DHT22;12762;51.730;5.356;2023-05-08T15:21:36;23.40;67.60
24618;DHT22;12762;51.730;5.356;2023-05-08T15:24:05;23.30;67.70
24618;DHT22;12762;51.730;5.356;2023-05-08T15:26:31;23.20;67.70
24618;DHT22;12762;51.730;5.356;2023-05-08T15:28:58;23.20;67.90
24618;DHT22;12762;51.730;5.356;2023-05-08T15:31:25;23.10;68.00
24618;DHT22;12762;51.730;5.356;2023-05-08T15:33:52;23.10;68.30
24618;DHT22;12762;51.730;5.356;2023-05-08T15:36:19;23.10;68.20
24618;DHT22;12762;51.730;5.356;2023-05-08T15:38:45;23.10;68.20
24618;DHT22;12762;51.730;5.356;2023-05-08T15:41:14;23.00;68.00
24618;DHT22;12762;51.730;5.356;2023-05-08T15:43:42;22.90;68.20
24618;DHT22;12762;51.730;5.356;2023-05-08T15:46:10;22.90;68.30
24618;DHT22;12762;51.730;5.356;2023-05-08T15:48:37;22.90;68.50
24618;DHT22;12762;51.730;5.356;2023-05-08T15:51:04;22.90;68.50
24618;DHT22;12762;51.730;5.356;2023-05-08T15:53:32;22.90;68.60
24618;DHT22;12762;51.730;5.356;2023-05-08T15:55:59;22.90;68.30
24618;DHT22;12762;51.730;5.356;2023-05-08T15:58:26;22.80;68.20
24618;DHT22;12762;51.730;5.356;2023-05-08T16:00:53;22.80;68.40
24618;DHT22;12762;51.730;5.356;2023-05-08T16:03:20;22.70;68.40
24618;DHT22;12762;51.730;5.356;2023-05-08T16:05:48;22.70;68.20
24618;DHT22;12762;51.730;5.356;2023-05-08T16:08:17;22.70;68.40
24618;DHT22;12762;51.730;5.356;2023-05-08T16:10:44;22.70;68.40
24618;DHT22;12762;51.730;5.356;2023-05-08T16:13:11;22.70;68.20
24618;DHT22;12762;51.730;5.356;2023-05-08T16:15:37;22.70;67.80
24618;DHT22;12762;51.730;5.356;2023-05-08T16:18:05;22.70;67.70
24618;DHT22;12762;51.730;5.356;2023-05-08T16:20:33;22.70;67.80
24618;DHT22;12762;51.730;5.356;2023-05-08T16:23:01;22.70;67.40
24618;DHT22;12762;51.730;5.356;2023-05-08T16:25:28;22.70;67.10
24618;DHT22;12762;51.730;5.356;2023-05-08T16:27:55;22.70;66.70
24618;DHT22;12762;51.730;5.356;2023-05-08T16:30:22;22.70;66.50